Flight Track Log - Related Links

Times and Time Zones

All times are in EDT time to prevent confusion due to time zone crossing. See the DAL6231 flight status page for this flight to view local times or setup timezone preferences in your user account.

Time Position Orientation Groundspeed Altitude Reporting Facility
EDT Latitude Longitude Course Direction KTS MPH feet Rate Location/Type
Fri 10:10:23 PM 40.7667 -73.8000 44° Northeast 200 230 2,200  Level New York TRACON
Fri 10:11:17 PM 40.8000 -73.7667 37° Northeast 211 243 4,700 2,474 Climbing New York TRACON
Fri 10:12:17 PM 40.8500 -73.7000 45° Northeast 260 299 6,900 2,168 Climbing New York TRACON
Fri 10:13:52 PM 40.9419 -73.5942 41° Northeast 282 325 10,300 1,974 Climbing Boston Center
Fri 10:14:52 PM 41.0072 -73.5292 37° Northeast 309 356 12,000 1,800 Climbing Boston Center
Fri 10:15:00 PM 41.1821 -73.3731 44° Northeast  Level FlightAware Approximate
Fri 10:15:52 PM 41.0933 -73.4372 39° Northeast 349 402 13,900  Level Boston Center
Fri 10:16:52 PM 41.1775 -73.3500 38° Northeast 367 422 16,000 1,900 Climbing Boston Center
Fri 10:17:52 PM 41.2514 -73.2381 49° Northeast 380 437 17,700 1,600 Climbing Boston Center
Fri 10:18:52 PM 41.3189 -73.1172 53° Northeast 397 457 19,200 1,700 Climbing Boston Center
Fri 10:19:52 PM 41.3883 -72.9989 52° Northeast 403 464 21,100 1,800 Climbing Boston Center
Fri 10:20:52 PM 41.4597 -72.8722 53° Northeast 408 470 22,800 1,500 Climbing Boston Center
Fri 10:21:52 PM 41.5289 -72.7506 53° Northeast 408 470 24,100 1,100 Climbing Boston Center
Fri 10:22:52 PM 41.5917 -72.6344 54° Northeast 408 470 25,000 950 Climbing Boston Center
Fri 10:23:52 PM 41.6625 -72.4956 56° Northeast 429 494 26,000 1,050 Climbing Boston Center
Fri 10:24:52 PM 41.7356 -72.3594 54° Northeast 451 519 27,100 1,000 Climbing Boston Center
Fri 10:25:52 PM 41.8375 -72.2533 38° Northeast 446 513 28,000 950 Climbing Boston Center
Fri 10:26:52 PM 41.9394 -72.1528 36° Northeast 451 519 29,000 1,000 Climbing Boston Center
Fri 10:27:52 PM 42.0267 -72.0208 48° Northeast 451 519 30,000 1,000 Climbing Boston Center
Fri 10:28:52 PM 42.1114 -71.8889 49° Northeast 459 528 31,000 1,050 Climbing Boston Center
Fri 10:29:52 PM 42.1961 -71.7592 49° Northeast 464 534 32,100 1,050 Climbing Boston Center
Fri 10:30:52 PM 42.2808 -71.6236 50° Northeast 464 534 33,100 1,000 Climbing Boston Center
Fri 10:31:52 PM 42.3775 -71.4817 47° Northeast 464 534 34,100 900 Climbing Boston Center
Fri 10:32:52 PM 42.4597 -71.3481 50° Northeast 464 534 34,900 700 Climbing Boston Center
Fri 10:33:52 PM 42.5417 -71.2142 50° Northeast 464 534 35,500 600 Climbing Boston Center
Fri 10:34:52 PM 42.6278 -71.0800 49° Northeast 464 534 36,100 600 Climbing Boston Center
Fri 10:35:52 PM 42.7114 -70.9425 50° Northeast 469 540 36,700 450 Climbing Boston Center
Fri 10:36:52 PM 42.7972 -70.8047 50° Northeast 469 540 37,000 150 Climbing Boston Center
Fri 10:37:52 PM 42.8847 -70.6606 50° Northeast 474 545 37,000  Level Boston Center
Fri 10:38:52 PM 42.9719 -70.5133 51° Northeast 480 552 37,000  Level Boston Center
Fri 10:39:52 PM 43.0611 -70.3714 49° Northeast 486 559 37,000  Level Boston Center
Fri 10:40:52 PM 43.1500 -70.2203 51° Northeast 491 565 37,000  Level Boston Center
Fri 10:41:52 PM 43.2367 -70.0717 51° Northeast 501 577 37,000  Level Boston Center
Fri 10:42:52 PM 43.3250 -69.9228 51° Northeast 501 577 37,000  Level Boston Center
Fri 10:43:52 PM 43.4156 -69.7731 50° Northeast 501 577 37,000  Level Boston Center
Fri 10:44:52 PM 43.5036 -69.6261 50° Northeast 501 577 37,000  Level Boston Center
Fri 10:45:52 PM 43.5936 -69.4728 51° Northeast 501 577 37,000  Level Boston Center
Fri 10:46:52 PM 43.6814 -69.3250 51° Northeast 507 583 37,000  Level Boston Center
Fri 10:47:52 PM 43.7708 -69.1708 51° Northeast 507 583 37,000  Level Boston Center
Fri 10:48:52 PM 43.8581 -69.0192 51° Northeast 507 583 37,000  Level Boston Center
Fri 10:49:52 PM 43.9456 -68.8728 50° Northeast 500 575 37,000  Level Boston Center
Fri 10:50:52 PM 44.0344 -68.7203 51° Northeast 500 575 37,000  Level Boston Center
Fri 10:51:52 PM 44.1053 -68.5972 51° Northeast 505 581 37,000  Level Boston Center
Fri 10:52:52 PM 44.2053 -68.4111 53° Northeast 505 581 37,000  Level Boston Center
Fri 10:53:52 PM 44.2936 -68.2569 51° Northeast 505 581 37,000  Level Boston Center
Fri 10:54:52 PM 44.3817 -68.1025 51° Northeast 505 581 37,000  Level Boston Center
Fri 10:55:52 PM 44.4694 -67.9447 52° Northeast 505 581 37,000  Level Boston Center
Fri 10:56:52 PM 44.5569 -67.7864 52° Northeast 505 581 37,000  Level Boston Center
Fri 10:57:07 PM 44.5667 -67.7500 69° East 510 587 37,000  Level Moncton Center
Fri 10:57:52 PM 44.6425 -67.6339 47° Northeast 505 581 37,000  Level Boston Center
Fri 10:58:52 PM 44.7294 -67.4717 53° Northeast 505 581 37,000  Level Boston Center
Fri 10:59:52 PM 44.8183 -67.3119 52° Northeast 512 589 37,000  Level Boston Center
Fri 11:00:07 PM 44.8167 -67.2667 93° East 510 587 37,000  Level Moncton Center
Fri 11:01:07 PM 44.8667 -67.0833 69° East 510 587 37,000  Level Moncton Center
Fri 11:02:07 PM 44.8833 -66.9000 83° East 500 575 37,000  Level Moncton Center
Fri 11:03:07 PM 44.9000 -66.6833 84° East 500 575 37,000  Level Moncton Center
Fri 11:04:07 PM 44.9000 -66.5000 90° East 500 575 37,000  Level Moncton Center
Fri 11:05:07 PM 44.9000 -66.3167 90° East 500 575 37,000  Level Moncton Center
Fri 11:06:07 PM 44.9167 -66.1000 84° East 500 575 37,000  Level Moncton Center
Fri 11:07:07 PM 44.9167 -65.9167 90° East 500 575 37,000 -1,200 Level Moncton Center
Fri 11:08:07 PM 44.9167 -65.7000 90° East 500 575 34,600 -2,650 Descending Moncton Center
Fri 11:09:07 PM 44.9000 -65.5000 97° East 490 564 31,700 -2,950 Descending Moncton Center
Fri 11:10:07 PM 44.8833 -65.3333 98° East 470 541 28,700 -3,150 Descending Moncton Center
Fri 11:11:07 PM 44.8667 -65.1500 97° East 450 518 25,400 -3,150 Descending Moncton Center
Fri 11:12:07 PM 44.8500 -64.9833 98° East 440 506 22,400 -3,100 Descending Moncton Center
Fri 11:13:07 PM 44.8167 -64.8167 106° East 420 483 19,200 -2,900 Descending Moncton Center
Fri 11:14:07 PM 44.8000 -64.6833 100° East 410 472 16,600 -2,800 Descending Moncton Center
Fri 11:15:07 PM 44.7833 -64.5167 98° East 400 460 13,600 -2,700 Descending Moncton Center
Fri 11:16:07 PM 44.7667 -64.3667 99° East 380 437 11,200 -1,750 Descending Moncton Center
Fri 11:17:07 PM 44.7500 -64.2500 101° East 320 368 10,100 -1,400 Descending Moncton Center
Fri 11:18:07 PM 44.7500 -64.1333 90° East 280 322 8,400 -1,650 Descending Moncton Center
Fri 11:19:07 PM 44.7333 -64.0500 106° East 250 288 6,800 -1,500 Descending Moncton Center
Fri 11:20:07 PM 44.7167 -63.9667 106° East 220 253 5,400 -1,350 Descending Moncton Center
Fri 11:21:07 PM 44.7167 -63.8833 90° East 210 242 4,100 -1,300 Descending Moncton Center
Fri 11:22:07 PM 44.7000 -63.8167 109° East 200 230 2,800 -800 Descending Moncton Center
Fri 11:23:07 PM 44.7000 -63.7333 90° East 180 207 2,500 -150 Descending Moncton Center
Fri 11:24:07 PM 44.7000 -63.6667 90° East 160 184 2,500 -250 Level Moncton Center
Fri 11:25:07 PM 44.7333 -63.6500 20° North 160 184 2,000 -250 Descending Moncton Center
Fri 11:26:07 PM 44.7667 -63.6000 47° Northeast 150 173 2,000 -50 Level Moncton Center
Fri 11:27:07 PM 44.7833 -63.5667 55° Northeast 120 138 1,900 -550 Descending Moncton Center
Fri 11:28:07 PM 44.8167 -63.5500 20° North 110 127 900 -600 Descending Moncton Center
Fri 11:29:07 PM 44.8500 -63.5167 35° Northeast 130 150 700 -200 Descending Moncton Center

Login

Don't have an account? Register now (free) for customized features, flight alerts, and more!